Relevés horaires Florennes (Belgique)


Relevés horaires à Florennes - Mercredi 05 Août 2020
Heure UTC1 Température [°C] Vent [km/h] Hum. [%] Pres.4 [hPa] Visi. [Km] Nébu. [octa] Préc.5 [mm] Cond.
2m. Res. Ros. Dir.2 Vit. Moy. Raf.3
23:00 20.1 20.1 7.0 NNO 1.9 -- 3.7 43 1016.7(0.5/3h) 20 -- -- --
22:00 20.0 20.0 7.1 NNO 1.9 -- 1.9 43 1016.7(0.9/3h) 20 -- -- --
21:00 21.2 21.2 6.9 NNO 1.9 -- 7.4 40 1016.5(1.1/3h) 20 -- -- --
20:00 21.5 21.5 8.0 NNO 1.9 -- 3.7 42 1016.1(1.0/3h) 20 -- -- --
19:00 24.5 24.5 7.0 SSO 3.7 -- 7.4 33 1015.2(0.3/3h) 20 -- -- --
18:00 26.2 26.2 6.4 S 5.6 -- 13.0 28 1014.7(0.0/3h) 1.8 -- -- --
17:00 27.2 27.2 6.9 S 5.6 -- 11.1 28 1014.3(-0.5/3h) 20 -- -- --
16:00 26.6 26.6 5.8 S 5.6 -- 11.1 26 1014.7(-0.7/3h) 20 -- -- --
15:00 26.5 26.5 5.8 S 3.7 -- 13.0 27 1014.7(-0.9/3h) 20 0/8 -- --
14:00 26.9 26.9 6.7 S 7.4 -- 13.0 28 1015(-1.0/3h) 20 0/8 -- --
13:00 25.7 25.7 5.5 SO 7.4 -- 13.0 27 1015.6(-0.8/3h) 20 0/8 -- --
12:00 25.3 25.3 6.8 SO 5.6 -- 16.7 31 1015.7(-0.8/3h) 20 0/8 -- --
11:00 23.8 23.8 6.3 SSO 7.4 -- 14.8 32 1016.3(-0.6/3h) 20 0/8 -- --
10:00 23.2 23.2 6.0 SSO 9.3 -- 16.7 33 1016.7(0.0/3h) 20 0/8 -- --
09:00 22.4 22.4 6.5 S 7.4 -- 14.8 36 1017(0.3/3h) 20 0/8 -- --
08:00 19.9 19.9 7.1 S 9.3 -- 13.0 43 1017.3(0.7/3h) 20 0/8 -- --
07:00 17.7 17.7 7.1 S 7.4 -- 11.1 50 1017.2(0.6/3h) 20 1/8 -- --
06:00 15.8 15.8 5.8 S 5.6 -- 9.3 51 1017.2(0.4/3h) 20 1/8 -- --
05:00 13.6 13.6 6.3 NNO 1.9 -- 3.7 61 1017.3(0.1/3h) 20 1/8 -- --
04:00 11.7 11.7 6.6 NNO 1.9 -- 1.9 71 1017.3(0.0/3h) 20 -- -- --
03:00 14.0 14.0 6.1 NNO 1.9 -- 3.7 59 1017.1(-0.3/3h) 20 -- -- --
02:00 14.1 14.1 6.5 NNO 1.9 -- 3.7 60 1017.2(-0.4/3h) 20 -- -- --
01:00 15.0 15.0 6.4 NNO 1.9 -- 3.7 56 1017.1(-0.5/3h) 20 -- -- --
00:00 15.4 15.4 6.8 NNO 1.9 -- 7.4 56 1017.2(-0.1/3h) 20 -- -- --

1 Coordinated Universal Time. Actuellement il est 10:00 locale et 08:00 UTC.

2 Le vent souffle depuis la direction indiquée vers la direction oposée.

3 Les rafales max. sont disponible 40 min après l'heure du relevé.

4 Pour les stations d'altitude (plus de 600m) le géopotentiel du niveau le plus proche de la pression obligatoire est indiqué.

5 Les stations disposant d'un diffuseur peuvent indiquer "trace". Cela signifie que des précipitations ont touchés le sol mais que la quantité est inférieure à 0.1 mm.

Récapitulatif de la journée
Température [°C] Vent [km/h] Ensoleillement4 [h] Precipitations totale5 [mm] Pression [Hpa]
Min1 Max.2 Moy.3 Max. Min Max.
10.9 27.9 0 16.7 0 h 0 min 0 1014.3 1017.3

1 Température minimale relevée entre 18:00 UTC la veille et 18:00 UTC le jour donné.

2 Température maximale relevée entre 06:00 UTC le jour donné et 06:00 UTC le lendemain.

3 Vent moyen de la journée basé sur les relevés horaires.

4 Ensoleillement en heures relevé entre 06:00 UTC la veille et 06:00 UTC le jour donné.

5 Précipitations totales tombées entre 06:00 UTC la jour donné et 06:00 UTC le lendemain.

Graphiques horaires